createdAt,value
2019-01-23T00:00:15.946Z,48.02
2019-01-23T00:02:44.415Z,38.35
2019-01-23T00:05:12.921Z,45.10
2019-01-23T00:07:41.390Z,39.23
2019-01-23T00:10:09.967Z,41.60
2019-01-23T00:12:38.422Z,48.10
2019-01-23T00:15:07.895Z,40.50
2019-01-23T00:17:36.357Z,29.05
2019-01-23T00:20:07.911Z,44.95
2019-01-23T00:22:36.369Z,33.63
2019-01-23T00:25:07.537Z,35.15
2019-01-23T00:27:35.989Z,47.62
2019-01-23T00:30:07.738Z,31.95
2019-01-23T00:32:36.200Z,35.73
2019-01-23T00:35:05.765Z,55.98
2019-01-23T00:37:34.229Z,32.55
2019-01-23T00:40:02.730Z,33.83
2019-01-23T00:42:31.270Z,37.60
2019-01-23T00:44:59.707Z,40.80
2019-01-23T00:47:28.139Z,41.73
2019-01-23T00:49:56.594Z,32.98
2019-01-23T00:52:25.027Z,38.53
2019-01-23T00:54:53.486Z,33.40
2019-01-23T00:57:21.917Z,39.78
2019-01-23T00:59:50.374Z,34.30
2019-01-23T01:02:18.808Z,31.20
2019-01-23T01:04:47.336Z,37.50
2019-01-23T01:07:15.833Z,42.83
2019-01-23T01:09:44.370Z,36.93
2019-01-23T01:12:12.804Z,32.83
2019-01-23T01:14:41.272Z,29.92
2019-01-23T01:17:09.708Z,38.17
2019-01-23T01:19:38.156Z,41.42
2019-01-23T01:22:06.592Z,36.20
2019-01-23T01:24:35.054Z,42.17
2019-01-23T01:27:03.487Z,33.50
2019-01-23T01:29:31.947Z,39.80
2019-01-23T01:32:00.526Z,33.73
2019-01-23T01:34:28.987Z,37.58
2019-01-23T01:36:57.564Z,37.78
2019-01-23T01:39:25.990Z,35.88
2019-01-23T01:41:54.448Z,32.00
2019-01-23T01:44:22.884Z,32.00
2019-01-23T01:46:51.424Z,39.95
2019-01-23T01:49:19.861Z,53.00
2019-01-23T01:51:48.399Z,43.00
2019-01-23T01:54:16.829Z,37.28
2019-01-23T01:56:45.293Z,32.70
2019-01-23T01:59:13.725Z,37.00
2019-01-23T02:01:42.178Z,35.33
2019-01-23T02:04:10.614Z,44.45
2019-01-23T02:06:39.067Z,33.63
2019-01-23T02:09:08.539Z,40.05
2019-01-23T02:11:37.001Z,45.58
2019-01-23T02:14:05.503Z,42.23
2019-01-23T02:16:33.959Z,43.73
2019-01-23T02:19:02.394Z,32.93
2019-01-23T02:21:30.852Z,36.90
2019-01-23T02:23:59.315Z,37.85
2019-01-23T02:26:27.745Z,39.40
2019-01-23T02:28:56.180Z,50.40
2019-01-23T02:31:24.634Z,31.15
2019-01-23T02:33:53.087Z,32.40
2019-01-23T02:36:21.543Z,33.70
2019-01-23T02:38:49.971Z,32.70
2019-01-23T02:41:18.435Z,28.02
2019-01-23T02:43:46.866Z,30.30
2019-01-23T02:46:15.355Z,30.97
2019-01-23T02:48:43.794Z,45.10
2019-01-23T02:51:12.228Z,38.30
2019-01-23T02:53:40.686Z,32.45
2019-01-23T02:56:09.192Z,27.90
2019-01-23T02:58:37.652Z,43.50
2019-01-23T03:01:06.092Z,38.60
2019-01-23T03:03:34.553Z,29.50
2019-01-23T03:06:03.059Z,36.00
2019-01-23T03:08:31.513Z,28.75
2019-01-23T03:10:59.941Z,34.63
2019-01-23T03:13:28.444Z,35.20
2019-01-23T03:15:56.912Z,27.70
2019-01-23T03:18:25.360Z,35.30
2019-01-23T03:20:53.861Z,44.63
2019-01-23T03:23:22.324Z,33.48
2019-01-23T03:25:50.750Z,28.50
2019-01-23T03:28:19.217Z,23.60
2019-01-23T03:30:47.650Z,39.48
2019-01-23T03:33:16.110Z,27.98
2019-01-23T03:35:44.544Z,29.57
2019-01-23T03:38:12.997Z,43.38
2019-01-23T03:40:41.423Z,35.65
2019-01-23T03:43:09.950Z,63.28
2019-01-23T03:45:38.388Z,33.75
2019-01-23T03:48:06.823Z,34.85
2019-01-23T03:50:35.281Z,30.62
2019-01-23T03:53:03.716Z,29.63
2019-01-23T03:55:32.178Z,30.77
2019-01-23T03:58:00.612Z,26.65
2019-01-23T04:00:29.068Z,49.45
2019-01-23T04:02:57.576Z,41.25
2019-01-23T04:05:26.102Z,28.77
2019-01-23T04:07:54.536Z,40.73
2019-01-23T04:10:22.996Z,26.25
2019-01-23T04:12:51.498Z,38.10
2019-01-23T04:15:19.955Z,24.72
2019-01-23T04:17:48.389Z,38.40
2019-01-23T04:20:19.083Z,27.10
2019-01-23T04:22:47.688Z,31.27
2019-01-23T04:25:16.222Z,28.23
2019-01-23T04:27:44.686Z,39.67
2019-01-23T04:30:18.852Z,35.68
2019-01-23T04:32:47.425Z,29.72
2019-01-23T04:35:15.959Z,40.55
2019-01-23T04:37:44.453Z,27.32
2019-01-23T04:40:14.151Z,31.07
2019-01-23T04:42:42.721Z,35.45
2019-01-23T04:45:16.201Z,32.40
2019-01-23T04:47:44.770Z,28.95
2019-01-23T04:50:15.371Z,39.60
2019-01-23T04:52:45.444Z,34.33
2019-01-23T04:55:13.969Z,30.35
2019-01-23T04:57:42.403Z,42.40
2019-01-23T05:00:14.245Z,40.60
2019-01-23T05:02:42.683Z,24.92
2019-01-23T05:05:11.376Z,23.30
2019-01-23T05:07:39.802Z,27.87
2019-01-23T05:10:08.398Z,26.23
2019-01-23T05:12:36.897Z,34.50
2019-01-23T05:15:07.694Z,35.45
2019-01-23T05:17:36.119Z,33.08
2019-01-23T05:20:07.745Z,31.05
2019-01-23T05:22:36.278Z,32.70
2019-01-23T05:25:05.947Z,35.33
2019-01-23T05:27:34.410Z,42.00
2019-01-23T05:30:02.907Z,31.33
2019-01-23T05:32:31.367Z,36.73
2019-01-23T05:34:59.796Z,42.78
2019-01-23T05:37:28.252Z,46.15
2019-01-23T05:39:56.698Z,42.60
2019-01-23T05:42:25.161Z,50.52
2019-01-23T05:44:53.585Z,48.73
2019-01-23T05:47:22.059Z,43.10
2019-01-23T05:49:50.482Z,37.25
2019-01-23T05:52:18.939Z,52.33
2019-01-23T05:54:47.450Z,47.58
2019-01-23T05:57:15.904Z,49.98
2019-01-23T05:59:44.333Z,33.05
2019-01-23T06:02:12.796Z,25.77
2019-01-23T06:04:41.227Z,33.73
2019-01-23T06:07:09.686Z,43.00
2019-01-23T06:09:38.114Z,21.50
2019-01-23T06:12:06.614Z,56.60
2019-01-23T06:14:35.143Z,47.27
2019-01-23T06:17:03.574Z,46.13
2019-01-23T06:19:32.097Z,29.05
2019-01-23T06:22:00.533Z,33.83
2019-01-23T06:24:29.003Z,42.50
2019-01-23T06:26:57.418Z,37.00
2019-01-23T06:29:25.878Z,53.87
2019-01-23T06:31:54.320Z,40.28
2019-01-23T06:34:22.772Z,33.10
2019-01-23T06:36:51.206Z,41.13
2019-01-23T06:39:19.658Z,39.50
2019-01-23T06:41:48.095Z,40.80
2019-01-23T06:44:16.552Z,43.58
2019-01-23T06:46:44.984Z,45.23
2019-01-23T06:49:13.433Z,45.98
2019-01-23T06:51:41.870Z,48.60
2019-01-23T06:54:10.327Z,44.83
2019-01-23T06:56:38.758Z,54.90
2019-01-23T06:59:07.210Z,48.55
2019-01-23T07:01:35.638Z,42.70
2019-01-23T07:04:04.159Z,50.75
2019-01-23T07:06:32.592Z,42.05
2019-01-23T07:09:01.050Z,49.23
2019-01-23T07:11:29.479Z,39.98
2019-01-23T07:13:57.932Z,42.83
2019-01-23T07:16:26.365Z,42.70
2019-01-23T07:18:54.818Z,46.70
2019-01-23T07:21:23.246Z,49.42
2019-01-23T07:23:51.679Z,52.95
2019-01-23T07:26:20.136Z,54.88
2019-01-23T07:28:49.336Z,71.22
2019-01-23T07:31:18.017Z,50.88
2019-01-23T07:33:46.503Z,53.95
2019-01-23T07:36:15.035Z,64.27
2019-01-23T07:38:43.468Z,58.25
2019-01-23T07:41:11.997Z,46.68
2019-01-23T07:43:40.428Z,38.02
2019-01-23T07:46:08.899Z,47.23
2019-01-23T07:48:37.329Z,39.78
2019-01-23T07:51:05.792Z,36.38
2019-01-23T07:53:34.218Z,43.15
2019-01-23T07:56:02.690Z,30.50
2019-01-23T07:58:31.117Z,44.25
2019-01-23T08:00:59.575Z,43.23
2019-01-23T08:03:28.073Z,28.50
2019-01-23T08:05:56.531Z,39.92
2019-01-23T08:08:24.968Z,30.23
2019-01-23T08:10:53.422Z,41.53
2019-01-23T08:13:21.938Z,30.88
2019-01-23T08:15:50.403Z,31.73
2019-01-23T08:18:18.838Z,41.25
2019-01-23T08:20:47.297Z,36.80
2019-01-23T08:23:15.734Z,42.03
2019-01-23T08:25:44.165Z,43.48
2019-01-23T08:28:12.707Z,45.33
2019-01-23T08:30:41.138Z,41.65
2019-01-23T08:33:09.594Z,29.23
2019-01-23T08:35:38.024Z,36.53
2019-01-23T08:38:06.491Z,52.48
2019-01-23T08:40:34.929Z,52.85
2019-01-23T08:43:03.387Z,48.20
2019-01-23T08:45:31.987Z,49.08
2019-01-23T08:48:00.455Z,39.48
2019-01-23T08:50:31.826Z,46.73
2019-01-23T08:53:00.354Z,39.50
2019-01-23T08:55:28.862Z,41.45
2019-01-23T08:57:57.321Z,34.58
2019-01-23T09:00:26.258Z,27.50
2019-01-23T09:02:54.797Z,31.97
2019-01-23T09:05:23.293Z,50.10
2019-01-23T09:07:51.755Z,41.08
2019-01-23T09:10:22.793Z,49.45
2019-01-23T09:12:51.495Z,43.90
2019-01-23T09:15:20.000Z,52.00
2019-01-23T09:17:48.533Z,49.48
2019-01-23T09:20:19.003Z,57.48
2019-01-23T09:22:47.438Z,62.83
2019-01-23T09:25:18.042Z,64.07
2019-01-23T09:27:46.643Z,59.95
2019-01-23T09:30:30.270Z,55.65
2019-01-23T09:33:23.126Z,34.48
2019-01-23T09:36:06.585Z,29.30
2019-01-23T09:38:54.759Z,39.08
2019-01-23T09:41:47.563Z,42.27
2019-01-23T09:44:27.998Z,50.85
2019-01-23T09:47:11.508Z,35.55
2019-01-23T09:49:46.077Z,41.48
2019-01-23T09:52:49.587Z,41.23
2019-01-23T09:55:18.050Z,50.40
2019-01-23T09:57:46.826Z,45.88
2019-01-23T10:00:20.721Z,40.98
2019-01-23T10:02:49.164Z,37.17
2019-01-23T10:05:17.691Z,49.93
2019-01-23T10:07:46.125Z,47.43
2019-01-23T10:10:19.587Z,47.05
2019-01-23T10:12:48.021Z,30.70
2019-01-23T10:15:22.664Z,40.00
2019-01-23T10:17:51.099Z,53.08
2019-01-23T10:20:19.630Z,55.75
2019-01-23T10:22:48.066Z,50.78
2019-01-23T10:25:16.920Z,42.55
2019-01-23T10:27:45.431Z,39.90
2019-01-23T10:30:15.442Z,46.92
2019-01-23T10:32:43.867Z,30.90
2019-01-23T10:35:15.868Z,65.25
2019-01-23T10:37:44.300Z,43.75
2019-01-23T10:40:17.602Z,54.00
2019-01-23T10:42:46.068Z,41.90
2019-01-23T10:45:17.648Z,40.12
2019-01-23T10:47:46.159Z,48.35
2019-01-23T10:50:16.517Z,46.75
2019-01-23T10:52:45.024Z,38.25
2019-01-23T10:55:13.724Z,51.25
2019-01-23T10:57:42.626Z,57.55
2019-01-23T11:00:17.082Z,51.08
2019-01-23T11:02:45.663Z,56.77
2019-01-23T11:05:17.134Z,65.17
2019-01-23T11:07:45.639Z,58.87
2019-01-23T11:10:17.279Z,59.03
2019-01-23T11:12:45.711Z,55.88
2019-01-23T11:15:14.580Z,66.20
2019-01-23T11:17:43.116Z,62.58
2019-01-23T11:20:17.253Z,61.63
2019-01-23T11:22:45.851Z,49.10
2019-01-23T11:25:15.529Z,46.18
2019-01-23T11:27:44.833Z,41.75
2019-01-23T11:30:21.971Z,51.18
2019-01-23T11:32:50.439Z,56.35
2019-01-23T11:35:18.956Z,53.02
2019-01-23T11:37:47.484Z,55.92
2019-01-23T11:40:27.214Z,59.05
2019-01-23T11:42:55.675Z,68.57
2019-01-23T11:45:24.192Z,53.87
2019-01-23T11:47:52.820Z,60.58
2019-01-23T11:50:23.086Z,62.80
2019-01-23T11:52:51.681Z,56.80
2019-01-23T11:55:20.101Z,58.90
2019-01-23T11:57:48.561Z,55.65
2019-01-23T12:00:19.673Z,58.02
2019-01-23T12:02:48.116Z,60.57
2019-01-23T12:05:18.385Z,64.00
2019-01-23T12:07:47.183Z,45.85
2019-01-23T12:10:20.825Z,56.70
2019-01-23T12:12:49.426Z,62.90
2019-01-23T12:15:19.892Z,60.73
2019-01-23T12:17:48.424Z,53.80
2019-01-23T12:20:16.991Z,50.87
2019-01-23T12:22:45.508Z,56.50
2019-01-23T12:25:14.809Z,61.77
2019-01-23T12:27:43.332Z,63.73
2019-01-23T12:30:17.784Z,54.33
2019-01-23T12:32:46.310Z,57.97
2019-01-23T12:35:14.867Z,51.77
2019-01-23T12:37:43.317Z,63.17
2019-01-23T12:40:14.088Z,53.50
2019-01-23T12:42:42.629Z,65.33
2019-01-23T12:45:14.255Z,60.80
2019-01-23T12:47:42.775Z,54.03
2019-01-23T12:50:14.307Z,67.80
2019-01-23T12:52:42.831Z,57.57
2019-01-23T12:55:11.395Z,59.93
2019-01-23T12:57:39.852Z,74.27
2019-01-23T13:00:14.568Z,60.47
2019-01-23T13:02:43.088Z,54.63
2019-01-23T13:05:13.445Z,65.30
2019-01-23T13:07:41.913Z,65.83
2019-01-23T13:10:13.344Z,58.53
2019-01-23T13:12:41.931Z,61.27
2019-01-23T13:15:18.951Z,57.83
2019-01-23T13:17:47.477Z,59.17
2019-01-23T13:20:17.740Z,52.83
2019-01-23T13:22:46.280Z,62.00
2019-01-23T13:25:17.052Z,65.20
2019-01-23T13:27:45.549Z,62.80
2019-01-23T13:30:19.370Z,66.45
2019-01-23T13:32:47.952Z,66.37
2019-01-23T13:35:19.330Z,69.00
2019-01-23T13:37:47.839Z,69.58
2019-01-23T13:40:24.964Z,58.13
2019-01-23T13:42:53.535Z,48.98
2019-01-23T13:45:22.245Z,64.32
2019-01-23T13:47:51.008Z,57.33
2019-01-23T13:50:20.134Z,59.70
2019-01-23T13:52:48.909Z,66.10
2019-01-23T13:55:21.288Z,62.95
2019-01-23T13:57:50.495Z,60.75
2019-01-23T14:00:24.897Z,63.52
2019-01-23T14:02:53.776Z,59.20
2019-01-23T14:05:22.580Z,67.97
2019-01-23T14:07:51.455Z,61.70
2019-01-23T14:10:20.488Z,65.40
2019-01-23T14:12:49.264Z,66.10
2019-01-23T14:15:24.167Z,57.80
2019-01-23T14:17:52.839Z,76.57
2019-01-23T14:20:21.864Z,65.70
2019-01-23T14:22:50.435Z,58.83
2019-01-23T14:25:19.125Z,59.43
2019-01-23T14:27:47.901Z,60.83
2019-01-23T14:30:25.779Z,67.07
2019-01-23T14:32:54.555Z,59.55
2019-01-23T14:35:23.469Z,61.83
2019-01-23T14:37:52.135Z,52.13
2019-01-23T14:40:20.841Z,64.17
2019-01-23T14:42:49.637Z,66.35
2019-01-23T14:45:19.255Z,60.75
2019-01-23T14:47:47.929Z,60.52
2019-01-23T14:50:18.633Z,61.58
2019-01-23T14:52:48.508Z,71.33
2019-01-23T14:55:17.297Z,65.77
2019-01-23T14:57:46.507Z,71.70
2019-01-23T15:00:26.995Z,74.87
2019-01-23T15:02:56.001Z,63.42
2019-01-23T15:05:24.908Z,84.03
2019-01-23T15:07:53.807Z,69.15
2019-01-23T15:10:24.987Z,70.67
2019-01-23T15:12:54.430Z,62.88
2019-01-23T15:15:24.259Z,76.15
2019-01-23T15:17:53.744Z,69.97
2019-01-23T15:20:28.071Z,80.65
2019-01-23T15:22:57.410Z,77.72
2019-01-23T15:25:26.548Z,70.92
2019-01-23T15:27:56.079Z,82.65
2019-01-23T15:30:25.572Z,70.90
2019-01-23T15:32:55.314Z,75.97
2019-01-23T15:35:24.448Z,80.17
2019-01-23T15:37:54.471Z,86.08
2019-01-23T15:40:29.423Z,85.47
2019-01-23T15:42:58.946Z,85.85
2019-01-23T15:45:28.754Z,77.55
2019-01-23T15:47:58.982Z,76.07
2019-01-23T15:50:28.914Z,83.78
2019-01-23T15:52:58.771Z,80.83
2019-01-23T15:55:28.769Z,84.97
2019-01-23T15:57:58.641Z,68.30
2019-01-23T16:00:32.526Z,78.33
2019-01-23T16:03:02.286Z,85.42
2019-01-23T16:05:32.089Z,91.32
2019-01-23T16:08:01.643Z,87.70
2019-01-23T16:10:31.444Z,91.20
2019-01-23T16:13:01.089Z,83.47
2019-01-23T16:15:30.906Z,83.03
2019-01-23T16:18:00.754Z,93.12
2019-01-23T16:20:30.254Z,77.20
2019-01-23T16:23:00.118Z,88.27
2019-01-23T16:25:29.915Z,81.55
2019-01-23T16:28:00.278Z,87.02
2019-01-23T16:30:34.779Z,86.92
2019-01-23T16:33:05.047Z,85.77
2019-01-23T16:35:38.645Z,73.60
2019-01-23T16:38:06.961Z,92.75
2019-01-23T16:40:36.876Z,94.97
2019-01-23T16:43:06.733Z,76.92
2019-01-23T16:45:36.434Z,100.70
2019-01-23T16:48:06.292Z,86.50
2019-01-23T16:50:35.992Z,94.90
2019-01-23T16:53:06.286Z,93.47
2019-01-23T16:55:35.868Z,88.12
2019-01-23T16:58:07.266Z,86.32
2019-01-23T17:00:37.018Z,85.12
2019-01-23T17:03:07.297Z,90.97
2019-01-23T17:05:37.028Z,91.55
2019-01-23T17:08:07.158Z,93.85
2019-01-23T17:10:37.322Z,83.55
2019-01-23T17:13:07.332Z,83.37
2019-01-23T17:15:37.394Z,93.72
2019-01-23T17:18:07.232Z,71.75
2019-01-23T17:20:39.404Z,86.32
2019-01-23T17:23:09.310Z,91.20
2019-01-23T17:25:39.564Z,93.72
2019-01-23T17:28:09.794Z,92.82
2019-01-23T17:30:39.645Z,89.62
2019-01-23T17:33:09.458Z,92.22
2019-01-23T17:35:39.207Z,90.40
2019-01-23T17:38:09.620Z,91.57
2019-01-23T17:40:39.581Z,87.50
2019-01-23T17:43:10.057Z,84.28
2019-01-23T17:45:40.665Z,89.72
2019-01-23T17:48:11.612Z,89.83
2019-01-23T17:50:41.861Z,78.90
2019-01-23T17:53:11.771Z,94.58
2019-01-23T17:55:42.150Z,81.65
2019-01-23T17:58:12.557Z,96.32
2019-01-23T18:00:44.574Z,75.75
2019-01-23T18:03:14.463Z,87.30
2019-01-23T18:05:50.976Z,90.60
2019-01-23T18:08:16.488Z,101.27
2019-01-23T18:10:46.552Z,76.97
2019-01-23T18:13:16.253Z,91.82
2019-01-23T18:15:46.806Z,88.20
2019-01-23T18:18:16.828Z,89.00
2019-01-23T18:20:47.086Z,91.20
2019-01-23T18:23:17.516Z,84.45
2019-01-23T18:25:47.582Z,94.70
2019-01-23T18:28:17.602Z,94.37
2019-01-23T18:31:01.594Z,91.75
2019-01-23T18:33:42.548Z,97.53
2019-01-23T18:36:20.059Z,78.83
2019-01-23T18:39:01.125Z,93.52
2019-01-23T18:41:48.064Z,59.10
2019-01-23T18:44:32.299Z,51.37
2019-01-23T18:47:10.185Z,79.15
2019-01-23T18:49:58.204Z,78.92
2019-01-23T18:52:28.556Z,56.13
2019-01-23T18:54:58.535Z,61.55
2019-01-23T18:57:33.126Z,84.97
2019-01-23T19:00:03.448Z,93.22
2019-01-23T19:02:33.814Z,51.98
2019-01-23T19:05:04.928Z,65.85
2019-01-23T19:07:35.308Z,64.65
2019-01-23T19:10:06.592Z,63.25
2019-01-23T19:12:37.024Z,55.28
2019-01-23T19:15:09.182Z,59.25
2019-01-23T19:17:39.645Z,74.27
2019-01-23T19:20:11.740Z,62.85
2019-01-23T19:22:42.478Z,54.18
2019-01-23T19:25:12.892Z,69.85
2019-01-23T19:27:43.350Z,58.95
2019-01-23T19:30:18.353Z,54.23
2019-01-23T19:32:48.757Z,78.10
2019-01-23T19:35:18.967Z,70.72
2019-01-23T19:37:49.530Z,68.42
2019-01-23T19:40:19.871Z,48.65
2019-01-23T19:42:50.531Z,60.35
2019-01-23T19:45:21.807Z,45.92
2019-01-23T19:47:52.110Z,62.17
2019-01-23T19:50:22.652Z,68.67
2019-01-23T19:52:53.229Z,82.60
2019-01-23T19:55:23.459Z,38.20
2019-01-23T19:57:54.393Z,65.35
2019-01-23T20:00:25.271Z,66.42
2019-01-23T20:02:55.893Z,84.15
2019-01-23T20:05:27.139Z,47.33
2019-01-23T20:07:58.242Z,40.80
2019-01-23T20:10:28.813Z,39.65
2019-01-23T20:12:59.225Z,47.30
2019-01-23T20:15:29.650Z,33.45
2019-01-23T20:18:00.319Z,38.05
2019-01-23T20:20:30.847Z,43.95
2019-01-23T20:23:01.287Z,36.42
2019-01-23T20:25:32.398Z,46.85
2019-01-23T20:28:03.198Z,27.02
2019-01-23T20:30:34.928Z,41.70
2019-01-23T20:33:05.280Z,39.45
2019-01-23T20:35:35.741Z,30.48
2019-01-23T20:38:06.300Z,31.40
2019-01-23T20:40:36.880Z,42.60
2019-01-23T20:43:07.394Z,51.98
2019-01-23T20:45:37.961Z,38.90
2019-01-23T20:48:08.204Z,24.72
2019-01-23T20:50:38.559Z,29.77
2019-01-23T20:53:08.672Z,29.67
2019-01-23T20:55:39.050Z,26.12
2019-01-23T20:58:09.246Z,39.65
2019-01-23T21:00:39.379Z,31.75
2019-01-23T21:03:09.624Z,32.95
2019-01-23T21:05:39.585Z,28.98
2019-01-23T21:08:10.000Z,33.70
2019-01-23T21:10:40.070Z,22.30
2019-01-23T21:13:09.973Z,32.17
2019-01-23T21:15:40.339Z,50.00
2019-01-23T21:18:10.442Z,28.95
2019-01-23T21:20:40.310Z,34.08
2019-01-23T21:23:10.313Z,40.48
2019-01-23T21:25:40.589Z,25.00
2019-01-23T21:28:10.587Z,21.55
2019-01-23T21:30:40.952Z,28.15
2019-01-23T21:33:10.962Z,27.15
2019-01-23T21:35:41.022Z,33.95
2019-01-23T21:38:10.836Z,49.33
2019-01-23T21:40:40.893Z,43.60
2019-01-23T21:43:10.732Z,28.40
2019-01-23T21:45:40.503Z,35.90
2019-01-23T21:48:10.671Z,39.27
2019-01-23T21:50:40.529Z,36.23
2019-01-23T21:53:10.434Z,36.68
2019-01-23T21:55:40.083Z,13.72
2019-01-23T21:58:09.783Z,29.77
2019-01-23T22:00:41.292Z,37.05
2019-01-23T22:03:11.282Z,31.70
2019-01-23T22:05:40.213Z,30.95
2019-01-23T22:08:09.723Z,38.88
2019-01-23T22:10:38.791Z,44.38
2019-01-23T22:13:07.559Z,26.00
2019-01-23T22:15:36.466Z,28.32
2019-01-23T22:18:05.869Z,24.47
2019-01-23T22:20:35.560Z,39.05
2019-01-23T22:23:04.439Z,20.77
2019-01-23T22:25:33.129Z,14.15
2019-01-23T22:28:01.900Z,34.43
2019-01-23T22:30:32.705Z,22.87
2019-01-23T22:33:01.585Z,28.32
2019-01-23T22:35:30.416Z,33.42
2019-01-23T22:37:59.440Z,31.70
2019-01-23T22:40:28.010Z,26.07
2019-01-23T22:42:56.610Z,33.10
2019-01-23T22:45:25.195Z,69.12
2019-01-23T22:47:53.889Z,34.35
2019-01-23T22:50:24.575Z,37.08
2019-01-23T22:52:53.570Z,24.30
2019-01-23T22:55:22.134Z,22.82
2019-01-23T22:57:50.767Z,38.35
2019-01-23T23:00:24.966Z,36.88
2019-01-23T23:02:53.694Z,33.58
2019-01-23T23:05:22.210Z,33.18
2019-01-23T23:07:50.657Z,24.12
2019-01-23T23:10:19.227Z,24.82
2019-01-23T23:12:47.684Z,30.35
2019-01-23T23:15:16.548Z,16.42
2019-01-23T23:17:45.013Z,28.05
2019-01-23T23:20:13.910Z,28.60
2019-01-23T23:22:42.370Z,22.00
2019-01-23T23:25:11.031Z,23.22
2019-01-23T23:27:39.752Z,27.40
2019-01-23T23:30:22.392Z,26.90
2019-01-23T23:32:50.920Z,28.23
2019-01-23T23:35:19.421Z,27.93
2019-01-23T23:37:47.881Z,29.12
2019-01-23T23:40:16.858Z,26.82
2019-01-23T23:42:45.360Z,32.17
2019-01-23T23:45:18.460Z,21.52
2019-01-23T23:47:46.959Z,32.40
2019-01-23T23:50:16.453Z,19.77
2019-01-23T23:52:45.025Z,27.90
2019-01-23T23:55:15.995Z,30.05
2019-01-23T23:57:44.573Z,36.93
